»·PEaware :: DAL350 MUHA-KTPA

DAL350 :: MUHA-KTPA

FLIGHT INFORMATION

Flight Status: Arrived
Operator:
Delta Air Lines
More flights by this operator :: More flights under this callsign
Pilot: Jeff H. (11722)
Aircraft: BOEING 757-200
(B752)
More flights by this aircraft type
Origin: MUHA Jose Marti Intl
Cuba
Destination: KTPA Tampa Intl
United States
More flights between these airports :: More routes between these airports
Route: EPRIM1 TADPO G448 MTH RSW BRDGE7
File this flight plan on PilotEdge
Remarks:
Altitude:
(Current/Filed)
360ft
Speed:
(Current/Filed)
0kts
Departed: 19-Dec-17 04:19 PM
Arrived: 19-Dec-17 05:16 PM
Distance/Time
Traveled:
299nm/0:57
Distance/Time
To Go:
Arrived

Flight Plot

Page will automatically refresh every two minutes.

Flight plan parsing failed; only flown route is shown


Map Options




Map Legend


Flown Route
Filed Route
Departure Airport
Arrival Airport
Navaid (VOR, NDB)
Fix

Horizontal Profiles

Position Reports

Time Latitude Longitude Heading Altitude Ground
Speed
19-Dec-17 16:16 23.001428 -82.397319 55 220ft 0kts
19-Dec-17 16:17 23.001428 -82.397319 55 220ft 0kts
19-Dec-17 16:18 23.001428 -82.397319 55 220ft 0kts
19-Dec-17 16:19 23.000093 -82.396943 142 220ft 16kts
19-Dec-17 16:20 22.995868 -82.402121 234 220ft 26kts
19-Dec-17 16:21 22.991818 -82.408245 235 220ft 23kts
19-Dec-17 16:22 22.987387 -82.414968 233 220ft 31kts
19-Dec-17 16:23 22.982531 -82.422227 233 220ft 28kts
19-Dec-17 16:24 22.978849 -82.424930 141 220ft 6kts
19-Dec-17 16:25 22.983056 -82.418314 53 221ft 127kts
19-Dec-17 16:26 23.016650 -82.369844 49 2539ft 235kts
19-Dec-17 16:27 23.056403 -82.310503 55 4955ft 263kts
19-Dec-17 16:28 23.101632 -82.246931 47 6958ft 272kts
19-Dec-17 16:29 23.154544 -82.186815 47 8957ft 281kts
19-Dec-17 16:30 23.209587 -82.124410 47 10365ft 289kts
19-Dec-17 16:31 23.269954 -82.055860 47 12580ft 344kts
19-Dec-17 16:32 23.337714 -81.977669 47 14508ft 369kts
19-Dec-17 16:33 23.408960 -81.896416 48 16393ft 382kts
19-Dec-17 16:34 23.482624 -81.812823 48 18289ft 396kts
19-Dec-17 16:35 23.558448 -81.726245 48 20174ft 411kts
19-Dec-17 16:36 23.637912 -81.635340 48 22051ft 427kts
19-Dec-17 16:37 23.721228 -81.540072 47 23942ft 442kts
19-Dec-17 16:38 23.807226 -81.442204 48 25824ft 450kts
19-Dec-17 16:39 23.893482 -81.342966 47 27690ft 452kts
19-Dec-17 16:40 23.980708 -81.246236 36 29535ft 447kts
19-Dec-17 16:41 24.092852 -81.201557 7 31416ft 427kts
19-Dec-17 16:42 24.205296 -81.179943 5 33227ft 408kts
19-Dec-17 16:43 24.311315 -81.160453 4 34985ft 383kts
19-Dec-17 16:44 24.411493 -81.142117 3 36177ft 363kts
19-Dec-17 16:45 24.502925 -81.126627 2 36207ft 373kts
19-Dec-17 16:46 24.607036 -81.111245 2 36205ft 389kts
19-Dec-17 16:47 24.715901 -81.098929 346 36208ft 395kts
19-Dec-17 16:48 24.820744 -81.134091 336 36206ft 405kts
19-Dec-17 16:49 24.929637 -81.174139 336 36205ft 425kts
19-Dec-17 16:50 25.044026 -81.216451 335 36205ft 445kts
19-Dec-17 16:51 25.163680 -81.260836 335 36204ft 465kts
19-Dec-17 16:52 25.287723 -81.306932 335 36196ft 474kts
19-Dec-17 16:53 25.412404 -81.353381 335 36207ft 474kts
19-Dec-17 16:54 25.536888 -81.399871 335 36213ft 474kts
19-Dec-17 16:55 25.661619 -81.446234 335 36209ft 474kts
19-Dec-17 16:56 25.783165 -81.491693 335 36209ft 474kts
19-Dec-17 16:57 25.905522 -81.537672 335 36209ft 474kts
19-Dec-17 16:58 26.028733 -81.584020 336 36209ft 474kts
19-Dec-17 16:59 26.153358 -81.630319 335 36206ft 474kts
19-Dec-17 17:00 26.275805 -81.676510 335 34137ft 459kts
19-Dec-17 17:01 26.394283 -81.721431 335 31628ft 445kts
19-Dec-17 17:02 26.507785 -81.764564 336 29159ft 433kts
19-Dec-17 17:03 26.621549 -81.789132 346 28194ft 413kts
19-Dec-17 17:04 26.734782 -81.807681 346 28199ft 412kts
19-Dec-17 17:05 26.840511 -81.850272 330 28227ft 416kts
19-Dec-17 17:06 26.951544 -81.902994 332 28219ft 444kts
19-Dec-17 17:07 27.063191 -81.953886 332 25658ft 427kts
19-Dec-17 17:08 27.170070 -82.002449 333 22519ft 406kts
19-Dec-17 17:09 27.272196 -82.048914 334 19395ft 389kts
19-Dec-17 17:10 27.368687 -82.092879 334 16264ft 360kts
19-Dec-17 17:11 27.455655 -82.134094 323 13193ft 332kts
19-Dec-17 17:12 27.518235 -82.204476 312 10155ft 312kts
19-Dec-17 17:13 27.573470 -82.270786 312 8844ft 281kts
19-Dec-17 17:14 27.625829 -82.333908 311 8878ft 274kts
19-Dec-17 17:15 27.672421 -82.393288 307 8878ft 274kts
19-Dec-17 17:16 27.724227 -82.459735 313 6732ft 290kts
19-Dec-17 17:17 27.779798 -82.524044 316 4223ft 267kts
19-Dec-17 17:18 27.842354 -82.546096 0 2453ft 209kts
19-Dec-17 17:19 27.890838 -82.544789 1 1484ft 149kts
19-Dec-17 17:20 27.929974 -82.543319 0 754ft 143kts
19-Dec-17 17:21 27.967364 -82.542226 1 38ft 119kts
19-Dec-17 17:22 27.978364 -82.540797 345 36ft 12kts
19-Dec-17 17:23 27.978745 -82.538437 14 36ft 0kts
19-Dec-17 17:24 27.978847 -82.538425 4 36ft 0kts

Navigation Log

Ident Type
Flight plan parsing failed, navigation log unavailable